Garfield, KY (40140)

10:14 PM CST on December 27, 2014 (GMT -0600)
Old Weldon | Change Station
CLOSE
Current Station
Personal Weather Station
Location: Brandenburg, KY
Elevation: 636 ft
Nearby Weather Stations

Elev 636 ft 37.97 °N, 86.13 °W | Updated 31 seconds ago

Overcast
Overcast
47.5 °F
Feels Like 48 °F
N
0.0
Wind Variable Wind from SW
Gusts 3.0 mph

Today
High -- | Low -- °F
--% Chance of Precip.
Yesterday
High -- | Low -- °F
Precip. -- in
6:59 AM 4:33 PM
Waxing Crescent, 43% visible
Pressure 30.09 in
Visibility 4.0 miles
Clouds Overcast 300 ft
Windchill 48 °F
Dew Point 47 °F
Humidity 97%
Rainfall 0.20 in
Snow Depth Not available.
UV 0 out of 12
Pollen .10 out of 12
Air Quality Not available.
Flu Activity Not available.
METAR KFTK 280358Z AUTO 23003KT 4SM R18/4500FT BR OVC003 08/08 A3007 RMK AO2 RAB0318E0340DZB0340E0342 SLP188 P0002 T00840080

More Conditions Fewer Conditions

Pressure 30.09 in
Visibility 4.0 miles
Clouds Overcast 300 ft
Windchill 48 °F
Dew Point 47 °F
Humidity 97%
Rainfall 0.20 in
Snow Depth Not available.
UV 0 out of 12
Pollen .10 out of 12
Air Quality Not available.
Flu Activity Not available.
METAR KFTK 280358Z AUTO 23003KT 4SM R18/4500FT BR OVC003 08/08 A3007 RMK AO2 RAB0318E0340DZB0340E0342 SLP188 P0002 T00840080

More Conditions Fewer Conditions

10-Day Weather Forecast

Almanac

Astronomy

Dec. 27, 2014 Rise Set
Actual Time
Civil Twilight
Nautical Twilight
Astronomical Twilight
Moon
Length of Visible Light
Length of Day
Tomorrow will be .
, % of the Moon is Illuminated

Today's Extremes

State Highs State Lows

Community

WunderPhotos

Upload Photos

1,781,187 photos uploaded!

WunderBlogs® & News

Nearby

Air Quality

  Air Quality AQ Index Pollutant
Not available.

Snow Depth

Station Depth Elevation

Earthquake Activity

City Distance Mag. Time & Date
Minimum magnitude displayed is 2.5.

Coastal Water Temperatures

Place Temperature

Nearby Weather Stations